sensor_id;sensor_type;location;lat;lon;timestamp;pressure;altitude;pressure_sealevel;temperature;humidity
51617;BME280;37697;52.588;13.394;2023-05-19T00:02:38;102270.61;;;8.78;58.63
51617;BME280;37697;52.588;13.394;2023-05-19T00:07:44;102274.23;;;8.69;58.82
51617;BME280;37697;52.588;13.394;2023-05-19T00:12:51;102275.69;;;8.63;58.88
51617;BME280;37697;52.588;13.394;2023-05-19T00:17:58;102270.73;;;8.56;58.92
51617;BME280;37697;52.588;13.394;2023-05-19T00:23:03;102267.83;;;8.48;58.86
51617;BME280;37697;52.588;13.394;2023-05-19T00:28:08;102271.61;;;8.42;59.19
51617;BME280;37697;52.588;13.394;2023-05-19T00:33:14;102272.66;;;8.39;58.99
51617;BME280;37697;52.588;13.394;2023-05-19T00:38:19;102273.70;;;8.36;59.19
51617;BME280;37697;52.588;13.394;2023-05-19T00:43:25;102270.45;;;8.27;58.99
51617;BME280;37697;52.588;13.394;2023-05-19T00:48:30;102275.98;;;8.19;59.37
51617;BME280;37697;52.588;13.394;2023-05-19T00:53:36;102276.66;;;8.08;59.49
51617;BME280;37697;52.588;13.394;2023-05-19T00:58:41;102274.26;;;8.01;59.58
51617;BME280;37697;52.588;13.394;2023-05-19T01:03:48;102277.14;;;7.93;59.88
51617;BME280;37697;52.588;13.394;2023-05-19T01:08:54;102273.53;;;7.88;60.10
51617;BME280;37697;52.588;13.394;2023-05-19T01:14:01;102271.75;;;7.84;60.31
51617;BME280;37697;52.588;13.394;2023-05-19T01:19:17;102268.36;;;7.78;60.36
51617;BME280;37697;52.588;13.394;2023-05-19T01:24:48;102264.14;;;7.65;60.53
51617;BME280;37697;52.588;13.394;2023-05-19T01:30:16;102267.08;;;7.56;60.65
51617;BME280;37697;52.588;13.394;2023-05-19T01:35:25;102266.48;;;7.44;60.93
51617;BME280;37697;52.588;13.394;2023-05-19T01:40:32;102270.87;;;7.36;61.24
51617;BME280;37697;52.588;13.394;2023-05-19T01:45:40;102268.80;;;7.26;61.27
51617;BME280;37697;52.588;13.394;2023-05-19T01:50:46;102270.02;;;7.14;61.47
51617;BME280;37697;52.588;13.394;2023-05-19T01:55:53;102262.02;;;7.04;61.67
51617;BME280;37697;52.588;13.394;2023-05-19T02:01:02;102270.98;;;6.90;61.84
51617;BME280;37697;52.588;13.394;2023-05-19T02:06:20;102277.70;;;6.78;62.13
51617;BME280;37697;52.588;13.394;2023-05-19T02:11:33;102274.89;;;6.68;62.44
51617;BME280;37697;52.588;13.394;2023-05-19T02:16:44;102275.06;;;6.59;62.62
51617;BME280;37697;52.588;13.394;2023-05-19T02:21:49;102274.38;;;6.50;62.90
51617;BME280;37697;52.588;13.394;2023-05-19T02:26:55;102271.14;;;6.43;62.87
51617;BME280;37697;52.588;13.394;2023-05-19T02:32:00;102271.08;;;6.37;63.21
51617;BME280;37697;52.588;13.394;2023-05-19T02:37:06;102268.67;;;6.33;63.38
51617;BME280;37697;52.588;13.394;2023-05-19T02:42:12;102267.80;;;6.31;63.69
51617;BME280;37697;52.588;13.394;2023-05-19T02:47:19;102261.77;;;6.30;64.14
51617;BME280;37697;52.588;13.394;2023-05-19T02:52:24;102260.24;;;6.33;64.50
51617;BME280;37697;52.588;13.394;2023-05-19T02:57:31;102258.77;;;6.35;64.75
51617;BME280;37697;52.588;13.394;2023-05-19T03:02:37;102258.69;;;6.35;64.86
51617;BME280;37697;52.588;13.394;2023-05-19T03:07:44;102261.20;;;6.34;65.01
51617;BME280;37697;52.588;13.394;2023-05-19T03:12:49;102257.22;;;6.30;65.17
51617;BME280;37697;52.588;13.394;2023-05-19T03:17:55;102252.73;;;6.28;65.40
51617;BME280;37697;52.588;13.394;2023-05-19T03:23:01;102254.80;;;6.25;65.40
51617;BME280;37697;52.588;13.394;2023-05-19T03:28:06;102256.15;;;6.22;65.65
51617;BME280;37697;52.588;13.394;2023-05-19T03:33:12;102260.27;;;6.19;65.67
51617;BME280;37697;52.588;13.394;2023-05-19T03:38:17;102255.67;;;6.13;66.11
51617;BME280;37697;52.588;13.394;2023-05-19T03:43:23;102255.88;;;6.11;66.20
51617;BME280;37697;52.588;13.394;2023-05-19T03:48:28;102253.36;;;6.11;66.22
51617;BME280;37697;52.588;13.394;2023-05-19T03:53:34;102251.86;;;6.12;66.62
51617;BME280;37697;52.588;13.394;2023-05-19T03:58:39;102251.33;;;6.15;66.57
51617;BME280;37697;52.588;13.394;2023-05-19T04:03:48;102258.42;;;6.21;66.72
51617;BME280;37697;52.588;13.394;2023-05-19T04:08:54;102257.77;;;6.30;67.06
51617;BME280;37697;52.588;13.394;2023-05-19T04:14:00;102257.48;;;6.41;67.01
51617;BME280;37697;52.588;13.394;2023-05-19T04:19:05;102257.27;;;6.71;66.95
51617;BME280;37697;52.588;13.394;2023-05-19T04:24:11;102257.71;;;7.37;66.00
51617;BME280;37697;52.588;13.394;2023-05-19T04:29:16;102262.61;;;7.88;65.63
51617;BME280;37697;52.588;13.394;2023-05-19T04:34:23;102267.27;;;7.97;65.69
51617;BME280;37697;52.588;13.394;2023-05-19T04:39:28;102270.67;;;7.97;65.44
51617;BME280;37697;52.588;13.394;2023-05-19T04:44:33;102272.92;;;8.11;65.74
51617;BME280;37697;52.588;13.394;2023-05-19T04:49:39;102266.55;;;8.48;65.12
51617;BME280;37697;52.588;13.394;2023-05-19T04:54:44;102264.89;;;8.70;64.71
51617;BME280;37697;52.588;13.394;2023-05-19T04:59:53;102271.40;;;8.84;64.77
51617;BME280;37697;52.588;13.394;2023-05-19T05:05:06;102274.10;;;9.10;64.00
51617;BME280;37697;52.588;13.394;2023-05-19T05:10:12;102268.40;;;9.51;63.34
51617;BME280;37697;52.588;13.394;2023-05-19T05:15:20;102265.04;;;9.95;62.64
51617;BME280;37697;52.588;13.394;2023-05-19T05:20:27;102264.00;;;10.09;62.35
51617;BME280;37697;52.588;13.394;2023-05-19T05:25:35;102269.21;;;10.21;62.56
51617;BME280;37697;52.588;13.394;2023-05-19T05:30:40;102269.61;;;10.29;62.39
51617;BME280;37697;52.588;13.394;2023-05-19T05:35:46;102267.81;;;10.26;62.10
51617;BME280;37697;52.588;13.394;2023-05-19T05:40:51;102271.01;;;10.18;61.99
51617;BME280;37697;52.588;13.394;2023-05-19T05:45:57;102270.07;;;10.19;61.91
51617;BME280;37697;52.588;13.394;2023-05-19T05:51:03;102267.63;;;10.22;61.65
51617;BME280;37697;52.588;13.394;2023-05-19T05:56:12;102270.41;;;10.32;62.03
51617;BME280;37697;52.588;13.394;2023-05-19T06:01:17;102267.27;;;10.44;62.07
51617;BME280;37697;52.588;13.394;2023-05-19T06:06:23;102266.80;;;10.57;62.22
51617;BME280;37697;52.588;13.394;2023-05-19T06:11:28;102259.33;;;10.81;62.12
51617;BME280;37697;52.588;13.394;2023-05-19T06:16:34;102260.37;;;11.04;61.65
51617;BME280;37697;52.588;13.394;2023-05-19T06:21:40;102266.19;;;11.28;61.31
51617;BME280;37697;52.588;13.394;2023-05-19T06:26:47;102267.74;;;11.53;61.06
51617;BME280;37697;52.588;13.394;2023-05-19T06:31:52;102267.30;;;11.86;60.79
51617;BME280;37697;52.588;13.394;2023-05-19T06:36:58;102271.42;;;12.17;60.56
51617;BME280;37697;52.588;13.394;2023-05-19T06:42:04;102271.61;;;12.43;60.27
51617;BME280;37697;52.588;13.394;2023-05-19T06:47:09;102269.58;;;12.68;59.96
51617;BME280;37697;52.588;13.394;2023-05-19T06:52:15;102270.03;;;12.83;59.33
51617;BME280;37697;52.588;13.394;2023-05-19T06:57:20;102270.48;;;12.96;59.26
51617;BME280;37697;52.588;13.394;2023-05-19T07:02:26;102262.82;;;13.17;59.24
51617;BME280;37697;52.588;13.394;2023-05-19T07:07:31;102260.18;;;13.41;58.55
51617;BME280;37697;52.588;13.394;2023-05-19T07:12:37;102259.73;;;13.52;58.34
51617;BME280;37697;52.588;13.394;2023-05-19T07:17:42;102265.66;;;13.74;58.35
51617;BME280;37697;52.588;13.394;2023-05-19T07:22:48;102263.86;;;13.94;58.00
51617;BME280;37697;52.588;13.394;2023-05-19T07:27:53;102264.79;;;14.09;57.42
51617;BME280;37697;52.588;13.394;2023-05-19T07:32:58;102263.23;;;14.23;57.25
51617;BME280;37697;52.588;13.394;2023-05-19T07:38:04;102260.23;;;14.53;57.58
51617;BME280;37697;52.588;13.394;2023-05-19T07:43:11;102255.15;;;14.91;56.57
51617;BME280;37697;52.588;13.394;2023-05-19T07:48:17;102249.30;;;15.06;56.34
51617;BME280;37697;52.588;13.394;2023-05-19T07:53:23;102246.50;;;15.29;56.05
51617;BME280;37697;52.588;13.394;2023-05-19T07:58:28;102245.84;;;15.67;55.49
51617;BME280;37697;52.588;13.394;2023-05-19T08:03:34;102248.62;;;16.00;53.90
51617;BME280;37697;52.588;13.394;2023-05-19T08:08:39;102244.73;;;16.26;53.33
51617;BME280;37697;52.588;13.394;2023-05-19T08:13:46;102244.45;;;16.50;52.55
51617;BME280;37697;52.588;13.394;2023-05-19T08:18:53;102239.77;;;16.88;52.33
51617;BME280;37697;52.588;13.394;2023-05-19T08:23:59;102241.15;;;17.16;51.92
51617;BME280;37697;52.588;13.394;2023-05-19T08:29:05;102241.00;;;17.37;51.38
51617;BME280;37697;52.588;13.394;2023-05-19T08:34:11;102242.55;;;17.50;49.91
51617;BME280;37697;52.588;13.394;2023-05-19T08:39:16;102240.14;;;17.92;50.30
51617;BME280;37697;52.588;13.394;2023-05-19T08:44:25;102243.75;;;18.20;49.23
51617;BME280;37697;52.588;13.394;2023-05-19T08:49:34;102238.77;;;18.48;47.20
51617;BME280;37697;52.588;13.394;2023-05-19T08:54:50;102234.77;;;18.55;46.56
51617;BME280;37697;52.588;13.394;2023-05-19T08:59:57;102230.02;;;18.75;46.98
51617;BME280;37697;52.588;13.394;2023-05-19T09:05:04;102217.70;;;18.99;46.02
51617;BME280;37697;52.588;13.394;2023-05-19T09:10:11;102222.68;;;18.75;44.81
51617;BME280;37697;52.588;13.394;2023-05-19T09:15:19;102213.73;;;18.63;45.25
51617;BME280;37697;52.588;13.394;2023-05-19T09:20:24;102211.87;;;18.76;45.50
51617;BME280;37697;52.588;13.394;2023-05-19T09:25:30;102204.48;;;18.68;44.30
51617;BME280;37697;52.588;13.394;2023-05-19T09:30:36;102206.86;;;18.50;43.73
51617;BME280;37697;52.588;13.394;2023-05-19T09:35:46;102197.73;;;18.70;44.10
51617;BME280;37697;52.588;13.394;2023-05-19T09:40:54;102187.89;;;18.77;43.20
51617;BME280;37697;52.588;13.394;2023-05-19T09:46:04;102187.60;;;19.11;42.21
51617;BME280;37697;52.588;13.394;2023-05-19T09:51:11;102186.38;;;19.30;41.61
51617;BME280;37697;52.588;13.394;2023-05-19T09:56:16;102186.77;;;19.22;42.08
51617;BME280;37697;52.588;13.394;2023-05-19T10:01:22;102179.65;;;19.50;41.65
51617;BME280;37697;52.588;13.394;2023-05-19T10:06:27;102185.88;;;19.82;40.92
51617;BME280;37697;52.588;13.394;2023-05-19T10:11:34;102172.52;;;19.85;39.96
51617;BME280;37697;52.588;13.394;2023-05-19T10:16:40;102167.23;;;19.67;40.02
51617;BME280;37697;52.588;13.394;2023-05-19T10:21:46;102162.32;;;19.55;40.15
51617;BME280;37697;52.588;13.394;2023-05-19T10:26:53;102162.56;;;19.59;39.88
51617;BME280;37697;52.588;13.394;2023-05-19T10:32:03;102165.59;;;19.52;39.28
51617;BME280;37697;52.588;13.394;2023-05-19T10:37:15;102167.44;;;19.31;39.38
51617;BME280;37697;52.588;13.394;2023-05-19T10:42:32;102158.78;;;19.25;39.71
51617;BME280;37697;52.588;13.394;2023-05-19T10:47:42;102164.60;;;19.24;40.31
51617;BME280;37697;52.588;13.394;2023-05-19T10:52:53;102150.77;;;19.34;39.82
51617;BME280;37697;52.588;13.394;2023-05-19T10:58:00;102154.37;;;19.43;39.41
51617;BME280;37697;52.588;13.394;2023-05-19T11:03:14;102145.07;;;19.23;39.02
51617;BME280;37697;52.588;13.394;2023-05-19T11:08:32;102145.02;;;19.56;39.39
51617;BME280;37697;52.588;13.394;2023-05-19T11:13:37;102141.36;;;19.56;38.86
51617;BME280;37697;52.588;13.394;2023-05-19T11:18:48;102136.09;;;19.44;38.94
51617;BME280;37697;52.588;13.394;2023-05-19T11:23:56;102142.21;;;19.63;38.70
51617;BME280;37697;52.588;13.394;2023-05-19T11:29:02;102137.55;;;19.79;38.15
51617;BME280;37697;52.588;13.394;2023-05-19T11:34:09;102135.02;;;19.97;38.30
51617;BME280;37697;52.588;13.394;2023-05-19T11:39:15;102123.88;;;20.23;38.50
51617;BME280;37697;52.588;13.394;2023-05-19T11:44:20;102120.24;;;20.45;38.37
51617;BME280;37697;52.588;13.394;2023-05-19T11:49:27;102126.05;;;20.49;38.05
51617;BME280;37697;52.588;13.394;2023-05-19T11:54:34;102127.55;;;20.52;37.41
51617;BME280;37697;52.588;13.394;2023-05-19T11:59:40;102119.02;;;20.51;37.04
51617;BME280;37697;52.588;13.394;2023-05-19T12:04:50;102124.48;;;20.09;36.69
51617;BME280;37697;52.588;13.394;2023-05-19T12:09:57;102123.69;;;19.95;37.56
51617;BME280;37697;52.588;13.394;2023-05-19T12:15:05;102125.56;;;20.13;37.17
51617;BME280;37697;52.588;13.394;2023-05-19T12:20:12;102116.05;;;20.47;37.31
51617;BME280;37697;52.588;13.394;2023-05-19T12:25:18;102111.65;;;20.66;36.75
51617;BME280;37697;52.588;13.394;2023-05-19T12:30:27;102111.83;;;20.43;36.42
51617;BME280;37697;52.588;13.394;2023-05-19T12:35:35;102110.29;;;20.15;36.46
51617;BME280;37697;52.588;13.394;2023-05-19T12:40:43;102106.58;;;19.87;36.40
51617;BME280;37697;52.588;13.394;2023-05-19T12:45:49;102101.17;;;19.70;36.62
51617;BME280;37697;52.588;13.394;2023-05-19T12:50:55;102099.98;;;19.81;36.97
51617;BME280;37697;52.588;13.394;2023-05-19T12:56:00;102094.96;;;19.79;36.66
51617;BME280;37697;52.588;13.394;2023-05-19T13:01:07;102095.14;;;19.65;36.59
51617;BME280;37697;52.588;13.394;2023-05-19T13:06:19;102092.45;;;19.60;37.37
51617;BME280;37697;52.588;13.394;2023-05-19T13:11:26;102087.92;;;19.70;37.44
51617;BME280;37697;52.588;13.394;2023-05-19T13:16:31;102080.95;;;19.88;37.52
51617;BME280;37697;52.588;13.394;2023-05-19T13:21:37;102085.80;;;20.16;36.50
51617;BME280;37697;52.588;13.394;2023-05-19T13:26:42;102087.73;;;20.05;36.72
51617;BME280;37697;52.588;13.394;2023-05-19T13:31:48;102085.20;;;19.96;36.84
51617;BME280;37697;52.588;13.394;2023-05-19T13:36:53;102087.34;;;19.75;37.18
51617;BME280;37697;52.588;13.394;2023-05-19T13:41:59;102090.15;;;19.82;37.22
51617;BME280;37697;52.588;13.394;2023-05-19T13:47:05;102084.75;;;19.65;37.52
51617;BME280;37697;52.588;13.394;2023-05-19T13:52:10;102085.46;;;19.69;37.53
51617;BME280;37697;52.588;13.394;2023-05-19T13:57:17;102082.55;;;19.46;37.29
51617;BME280;37697;52.588;13.394;2023-05-19T14:02:22;102079.18;;;19.35;38.09
51617;BME280;37697;52.588;13.394;2023-05-19T14:07:28;102080.27;;;19.36;38.17
51617;BME280;37697;52.588;13.394;2023-05-19T14:12:35;102079.73;;;19.30;38.38
51617;BME280;37697;52.588;13.394;2023-05-19T14:17:56;102084.84;;;19.11;38.71
51617;BME280;37697;52.588;13.394;2023-05-19T14:23:03;102084.09;;;18.83;38.92
51617;BME280;37697;52.588;13.394;2023-05-19T14:28:08;102086.39;;;18.49;39.21
51617;BME280;37697;52.588;13.394;2023-05-19T14:33:15;102090.20;;;18.35;39.88
51617;BME280;37697;52.588;13.394;2023-05-19T14:38:21;102089.40;;;18.45;40.24
51617;BME280;37697;52.588;13.394;2023-05-19T14:43:26;102094.96;;;18.70;39.76
51617;BME280;37697;52.588;13.394;2023-05-19T14:48:32;102090.38;;;18.98;39.82
51617;BME280;37697;52.588;13.394;2023-05-19T14:53:37;102095.13;;;19.27;39.56
51617;BME280;37697;52.588;13.394;2023-05-19T14:58:43;102092.63;;;19.37;39.49
51617;BME280;37697;52.588;13.394;2023-05-19T15:03:48;102098.40;;;19.36;39.08
51617;BME280;37697;52.588;13.394;2023-05-19T15:08:54;102096.53;;;19.15;38.49
51617;BME280;37697;52.588;13.394;2023-05-19T15:14:00;102100.44;;;19.00;39.09
51617;BME280;37697;52.588;13.394;2023-05-19T15:19:05;102098.98;;;18.77;38.90
51617;BME280;37697;52.588;13.394;2023-05-19T15:24:11;102097.60;;;18.58;39.50
51617;BME280;37697;52.588;13.394;2023-05-19T15:29:16;102095.84;;;18.48;39.61
51617;BME280;37697;52.588;13.394;2023-05-19T15:34:21;102091.02;;;18.37;39.80
51617;BME280;37697;52.588;13.394;2023-05-19T15:39:27;102077.88;;;18.45;40.07
51617;BME280;37697;52.588;13.394;2023-05-19T15:44:33;102076.35;;;18.49;40.31
51617;BME280;37697;52.588;13.394;2023-05-19T15:49:41;102074.58;;;18.37;39.77
51617;BME280;37697;52.588;13.394;2023-05-19T15:54:47;102082.95;;;18.17;39.71
51617;BME280;37697;52.588;13.394;2023-05-19T15:59:53;102081.33;;;18.14;40.11
51617;BME280;37697;52.588;13.394;2023-05-19T16:04:58;102080.11;;;18.13;40.19
51617;BME280;37697;52.588;13.394;2023-05-19T16:10:04;102079.48;;;18.12;40.45
51617;BME280;37697;52.588;13.394;2023-05-19T16:15:10;102076.75;;;18.08;40.49
51617;BME280;37697;52.588;13.394;2023-05-19T16:20:16;102076.90;;;18.05;40.39
51617;BME280;37697;52.588;13.394;2023-05-19T16:25:22;102071.45;;;17.96;40.59
51617;BME280;37697;52.588;13.394;2023-05-19T16:30:27;102067.64;;;17.90;40.79
51617;BME280;37697;52.588;13.394;2023-05-19T16:35:33;102065.77;;;17.81;40.92
51617;BME280;37697;52.588;13.394;2023-05-19T16:40:38;102064.39;;;17.68;41.07
51617;BME280;37697;52.588;13.394;2023-05-19T16:45:44;102064.40;;;17.47;41.23
51617;BME280;37697;52.588;13.394;2023-05-19T16:50:50;102068.73;;;17.29;41.34
51617;BME280;37697;52.588;13.394;2023-05-19T16:55:55;102074.30;;;17.16;41.44
51617;BME280;37697;52.588;13.394;2023-05-19T17:01:03;102073.84;;;17.07;41.84
51617;BME280;37697;52.588;13.394;2023-05-19T17:06:09;102069.70;;;16.94;41.83
51617;BME280;37697;52.588;13.394;2023-05-19T17:11:14;102067.46;;;16.82;42.10
51617;BME280;37697;52.588;13.394;2023-05-19T17:16:20;102073.24;;;16.72;42.24
51617;BME280;37697;52.588;13.394;2023-05-19T17:21:25;102076.05;;;16.56;42.41
51617;BME280;37697;52.588;13.394;2023-05-19T17:26:31;102076.79;;;16.44;42.65
51617;BME280;37697;52.588;13.394;2023-05-19T17:31:36;102074.67;;;16.35;42.85
51617;BME280;37697;52.588;13.394;2023-05-19T17:36:42;102075.20;;;16.27;43.08
51617;BME280;37697;52.588;13.394;2023-05-19T17:41:47;102072.78;;;16.23;43.43
51617;BME280;37697;52.588;13.394;2023-05-19T17:46:53;102077.86;;;16.19;43.59
51617;BME280;37697;52.588;13.394;2023-05-19T17:51:59;102085.91;;;16.15;43.72
51617;BME280;37697;52.588;13.394;2023-05-19T17:57:09;102089.61;;;16.10;44.13
51617;BME280;37697;52.588;13.394;2023-05-19T18:02:16;102088.20;;;16.08;44.19
51617;BME280;37697;52.588;13.394;2023-05-19T18:07:24;102091.17;;;16.01;44.43
51617;BME280;37697;52.588;13.394;2023-05-19T18:12:31;102081.64;;;15.91;44.56
51617;BME280;37697;52.588;13.394;2023-05-19T18:17:37;102085.73;;;15.84;44.81
51617;BME280;37697;52.588;13.394;2023-05-19T18:22:43;102087.66;;;15.75;44.97
51617;BME280;37697;52.588;13.394;2023-05-19T18:27:48;102088.31;;;15.65;45.17
51617;BME280;37697;52.588;13.394;2023-05-19T18:32:54;102090.16;;;15.55;45.33
51617;BME280;37697;52.588;13.394;2023-05-19T18:37:59;102097.10;;;15.42;45.39
51617;BME280;37697;52.588;13.394;2023-05-19T18:43:05;102102.07;;;15.30;45.62
51617;BME280;37697;52.588;13.394;2023-05-19T18:48:10;102109.52;;;15.18;45.77
51617;BME280;37697;52.588;13.394;2023-05-19T18:53:16;102112.58;;;15.07;46.18
51617;BME280;37697;52.588;13.394;2023-05-19T18:58:21;102119.65;;;14.98;46.20
51617;BME280;37697;52.588;13.394;2023-05-19T19:03:27;102117.02;;;14.88;46.45
51617;BME280;37697;52.588;13.394;2023-05-19T19:08:33;102114.33;;;14.78;46.81
51617;BME280;37697;52.588;13.394;2023-05-19T19:13:38;102109.31;;;14.67;46.96
51617;BME280;37697;52.588;13.394;2023-05-19T19:18:44;102109.13;;;14.56;47.21
51617;BME280;37697;52.588;13.394;2023-05-19T19:23:50;102116.85;;;14.48;47.68
51617;BME280;37697;52.588;13.394;2023-05-19T19:28:56;102118.86;;;14.38;47.93
51617;BME280;37697;52.588;13.394;2023-05-19T19:34:02;102125.16;;;14.31;48.22
51617;BME280;37697;52.588;13.394;2023-05-19T19:39:13;102126.13;;;14.23;48.32
51617;BME280;37697;52.588;13.394;2023-05-19T19:44:19;102124.73;;;14.15;48.84
51617;BME280;37697;52.588;13.394;2023-05-19T19:49:27;102124.10;;;14.06;49.13
51617;BME280;37697;52.588;13.394;2023-05-19T19:54:32;102123.29;;;13.99;49.38
51617;BME280;37697;52.588;13.394;2023-05-19T19:59:38;102117.39;;;13.90;49.55
51617;BME280;37697;52.588;13.394;2023-05-19T20:04:43;102124.26;;;13.79;50.04
51617;BME280;37697;52.588;13.394;2023-05-19T20:09:49;102125.36;;;13.67;50.14
51617;BME280;37697;52.588;13.394;2023-05-19T20:14:55;102126.31;;;13.61;50.53
51617;BME280;37697;52.588;13.394;2023-05-19T20:26:18;102131.32;;;13.38;51.43
51617;BME280;37697;52.588;13.394;2023-05-19T20:31:25;102135.94;;;13.33;51.58
51617;BME280;37697;52.588;13.394;2023-05-19T20:36:30;102136.64;;;13.25;51.86
51617;BME280;37697;52.588;13.394;2023-05-19T20:41:36;102148.75;;;13.16;52.30
51617;BME280;37697;52.588;13.394;2023-05-19T20:46:41;102151.17;;;13.08;52.55
51617;BME280;37697;52.588;13.394;2023-05-19T20:51:47;102154.98;;;13.00;53.07
51617;BME280;37697;52.588;13.394;2023-05-19T20:56:52;102154.88;;;12.91;53.12
51617;BME280;37697;52.588;13.394;2023-05-19T21:01:58;102152.04;;;12.83;53.27
51617;BME280;37697;52.588;13.394;2023-05-19T21:07:03;102154.78;;;12.75;53.70
51617;BME280;37697;52.588;13.394;2023-05-19T21:12:09;102146.98;;;12.65;53.73
51617;BME280;37697;52.588;13.394;2023-05-19T21:17:15;102151.89;;;12.56;54.19
51617;BME280;37697;52.588;13.394;2023-05-19T21:22:20;102156.11;;;12.47;54.51
51617;BME280;37697;52.588;13.394;2023-05-19T21:27:26;102160.96;;;12.37;54.86
51617;BME280;37697;52.588;13.394;2023-05-19T21:32:31;102167.73;;;12.25;55.17
51617;BME280;37697;52.588;13.394;2023-05-19T21:37:37;102172.39;;;12.13;55.46
51617;BME280;37697;52.588;13.394;2023-05-19T21:42:42;102174.46;;;12.01;55.79
51617;BME280;37697;52.588;13.394;2023-05-19T21:47:48;102180.95;;;11.89;55.93
51617;BME280;37697;52.588;13.394;2023-05-19T21:52:53;102180.67;;;11.78;56.38
51617;BME280;37697;52.588;13.394;2023-05-19T21:57:58;102182.23;;;11.69;56.49
51617;BME280;37697;52.588;13.394;2023-05-19T22:03:07;102184.70;;;11.60;56.61
51617;BME280;37697;52.588;13.394;2023-05-19T22:08:13;102185.41;;;11.53;56.96
51617;BME280;37697;52.588;13.394;2023-05-19T22:13:19;102183.70;;;11.44;57.34
51617;BME280;37697;52.588;13.394;2023-05-19T22:18:24;102187.10;;;11.33;57.37
51617;BME280;37697;52.588;13.394;2023-05-19T22:23:30;102190.05;;;11.25;57.78
51617;BME280;37697;52.588;13.394;2023-05-19T22:28:36;102186.18;;;11.20;58.12
51617;BME280;37697;52.588;13.394;2023-05-19T22:33:41;102189.77;;;11.14;58.27
51617;BME280;37697;52.588;13.394;2023-05-19T22:38:47;102189.80;;;11.07;58.56
51617;BME280;37697;52.588;13.394;2023-05-19T22:43:52;102194.48;;;11.03;58.75
51617;BME280;37697;52.588;13.394;2023-05-19T22:48:57;102194.85;;;11.01;58.83
51617;BME280;37697;52.588;13.394;2023-05-19T22:54:03;102198.64;;;10.96;59.01
51617;BME280;37697;52.588;13.394;2023-05-19T22:59:08;102196.80;;;10.90;59.15
51617;BME280;37697;52.588;13.394;2023-05-19T23:04:13;102196.60;;;10.80;59.56
51617;BME280;37697;52.588;13.394;2023-05-19T23:09:19;102191.70;;;10.69;59.91
51617;BME280;37697;52.588;13.394;2023-05-19T23:14:26;102192.01;;;10.63;60.08
51617;BME280;37697;52.588;13.394;2023-05-19T23:19:31;102192.86;;;10.57;60.46
51617;BME280;37697;52.588;13.394;2023-05-19T23:24:39;102187.70;;;10.51;60.46
51617;BME280;37697;52.588;13.394;2023-05-19T23:29:48;102186.56;;;10.45;60.83
51617;BME280;37697;52.588;13.394;2023-05-19T23:34:53;102187.90;;;10.38;61.02
51617;BME280;37697;52.588;13.394;2023-05-19T23:39:59;102187.11;;;10.34;61.33
51617;BME280;37697;52.588;13.394;2023-05-19T23:45:07;102186.91;;;10.31;61.17
51617;BME280;37697;52.588;13.394;2023-05-19T23:50:12;102189.63;;;10.25;61.46
51617;BME280;37697;52.588;13.394;2023-05-19T23:55:18;102194.20;;;10.20;61.94
